CheckWX is a tool to help pilots better visualize weather data.  It is not intended as a substitute for an official pre-flight weather briefing.

02:52:23 UTC

F44 METAR
Athens Municipal Airport
Athens, Texas, USA
Current

17 mins ago

KF44 230235Z AUTO 15008KT 10SM CLR 27/22 A2999 RMK AO2
Observed
Sep-23 @ 02:35 UTC
Wind
  • 150° at 8 KTS
Visibility
10 SM
Flight Rules
VFR
Cloud Levels
  • Clear skies
Temperature
27°C / 81°F
Dewpoint
22°C / 72°F
Heat Index
29°C / 85°F
Humidity
74%
Altimeter
29.99" Hg
Pressure
1015.62 hPa
Previous

37 mins ago

KF44 230215Z AUTO 15008KT 10SM CLR 28/22 A2999 RMK AO2
Observed
Sep-23 @ 02:15 UTC
Wind
  • 150° at 8 KTS
Visibility
10 SM
Flight Rules
VFR
Cloud Levels
  • Clear skies
Temperature
28°C / 82°F
Dewpoint
22°C / 72°F
Heat Index
30°C / 86°F
Humidity
70%
Altimeter
29.99" Hg
Pressure
1015.62 hPa
Previous

57 mins ago

KF44 230155Z AUTO 14005KT 10SM CLR 28/22 A2998 RMK AO2 LTG DSNT W
Observed
Sep-23 @ 01:55 UTC
Wind
  • 140° at 5 KTS
Visibility
10 SM
Flight Rules
VFR
Cloud Levels
  • Clear skies
Temperature
28°C / 82°F
Dewpoint
22°C / 72°F
Heat Index
30°C / 86°F
Humidity
70%
Altimeter
29.98" Hg
Pressure
1015.22 hPa